createdAt,value
2023-02-03T00:03:09.883Z,9.10
2023-02-03T00:07:22.228Z,7.50
2023-02-03T00:11:33.855Z,3.80
2023-02-03T00:15:45.551Z,8.57
2023-02-03T00:19:57.130Z,8.60
2023-02-03T00:24:08.851Z,6.30
2023-02-03T00:28:20.403Z,7.90
2023-02-03T00:32:32.265Z,8.87
2023-02-03T00:36:44.045Z,8.23
2023-02-03T00:40:55.645Z,8.43
2023-02-03T00:45:08.481Z,6.80
2023-02-03T00:49:20.043Z,5.73
2023-02-03T00:53:31.751Z,6.87
2023-02-03T00:57:43.415Z,8.17
2023-02-03T01:01:55.678Z,6.40
2023-02-03T01:06:19.155Z,7.17
2023-02-03T01:10:31.678Z,5.33
2023-02-03T01:14:43.342Z,8.50
2023-02-03T01:18:55.573Z,6.40
2023-02-03T01:23:07.150Z,7.47
2023-02-03T01:27:18.776Z,8.23
2023-02-03T01:31:37.120Z,8.23
2023-02-03T01:35:48.729Z,5.57
2023-02-03T01:40:00.237Z,7.63
2023-02-03T01:44:53.669Z,5.13
2023-02-03T01:49:13.053Z,5.25
2023-02-03T01:53:24.539Z,7.50
2023-02-03T01:57:51.263Z,7.30
2023-02-03T02:02:04.760Z,6.17
2023-02-03T02:06:16.491Z,5.80
2023-02-03T02:10:29.973Z,7.60
2023-02-03T02:14:43.059Z,4.17
2023-02-03T02:19:11.108Z,4.40
2023-02-03T02:23:58.651Z,7.37
2023-02-03T02:28:29.314Z,5.18
2023-02-03T02:32:53.877Z,4.67
2023-02-03T02:37:22.690Z,3.67
2023-02-03T02:41:49.143Z,5.22
2023-02-03T02:46:08.587Z,6.63
2023-02-03T02:50:25.219Z,5.65
2023-02-03T02:54:41.873Z,4.33
2023-02-03T02:58:56.267Z,6.47
2023-02-03T03:03:18.610Z,8.57
2023-02-03T03:07:35.450Z,7.10
2023-02-03T03:11:58.103Z,4.80
2023-02-03T03:16:12.449Z,12.05
2023-02-03T03:20:27.493Z,6.07
2023-02-03T03:24:45.686Z,7.70
2023-02-03T03:29:14.823Z,6.57
2023-02-03T03:33:26.542Z,4.97
2023-02-03T03:37:50.503Z,6.83
2023-02-03T03:42:14.932Z,7.10
2023-02-03T03:46:43.299Z,5.23
2023-02-03T03:51:20.171Z,6.80
2023-02-03T03:55:35.112Z,5.17
2023-02-03T03:59:49.580Z,5.67
2023-02-03T04:04:05.912Z,3.13
2023-02-03T04:08:17.500Z,7.53
2023-02-03T04:12:28.998Z,5.60
2023-02-03T04:16:40.553Z,4.70
2023-02-03T04:20:52.101Z,6.65
2023-02-03T04:25:03.906Z,5.10
2023-02-03T04:29:15.417Z,6.97
2023-02-03T04:33:27.156Z,4.38
2023-02-03T04:37:38.726Z,9.57
2023-02-03T04:41:50.213Z,4.10
2023-02-03T04:46:01.957Z,7.93
2023-02-03T04:50:13.493Z,7.85
2023-02-03T04:54:25.074Z,6.43
2023-02-03T04:58:37.187Z,6.45
2023-02-03T05:02:48.739Z,3.43
2023-02-03T05:07:00.458Z,7.83
2023-02-03T05:11:11.929Z,9.13
2023-02-03T05:15:23.476Z,5.18
2023-02-03T05:19:34.957Z,4.80
2023-02-03T05:23:46.634Z,4.77
2023-02-03T05:27:58.221Z,6.20
2023-02-03T05:32:09.772Z,4.07
2023-02-03T05:36:21.341Z,6.47
2023-02-03T05:40:51.526Z,6.00
2023-02-03T05:45:03.316Z,5.95
2023-02-03T05:49:15.075Z,3.37
2023-02-03T05:53:27.299Z,4.93
2023-02-03T05:57:38.801Z,4.57
2023-02-03T06:01:50.352Z,5.07
2023-02-03T06:06:01.979Z,6.97
2023-02-03T06:10:14.183Z,2.73
2023-02-03T06:14:25.774Z,7.00
2023-02-03T06:18:37.298Z,7.13
2023-02-03T06:22:48.864Z,6.10
2023-02-03T06:27:00.446Z,7.85
2023-02-03T06:31:12.115Z,7.75
2023-02-03T06:35:23.754Z,6.17
2023-02-03T06:39:35.273Z,9.00
2023-02-03T06:43:46.757Z,7.30
2023-02-03T06:47:58.323Z,5.40
2023-02-03T06:52:09.930Z,7.72
2023-02-03T06:56:21.453Z,9.53
2023-02-03T07:00:33.295Z,6.10
2023-02-03T07:04:45.151Z,8.98
2023-02-03T07:08:58.158Z,5.80
2023-02-03T07:13:10.627Z,6.28
2023-02-03T07:17:22.130Z,7.80
2023-02-03T07:21:33.707Z,4.50
2023-02-03T07:26:11.220Z,6.07
2023-02-03T07:30:22.995Z,4.60
2023-02-03T07:34:34.523Z,4.93
2023-02-03T07:38:46.109Z,6.37
2023-02-03T07:42:57.789Z,5.00
2023-02-03T07:47:10.088Z,6.07
2023-02-03T07:51:21.806Z,9.03
2023-02-03T07:55:34.429Z,4.47
2023-02-03T07:59:45.985Z,6.75
2023-02-03T08:03:57.525Z,7.57
2023-02-03T08:08:09.132Z,6.13
2023-02-03T08:12:21.034Z,7.43
2023-02-03T08:16:32.716Z,9.57
2023-02-03T08:20:44.318Z,4.88
2023-02-03T08:24:55.868Z,4.65
2023-02-03T08:29:07.854Z,4.60
2023-02-03T08:33:19.342Z,3.42
2023-02-03T08:37:32.536Z,6.28
2023-02-03T08:41:44.142Z,7.13
2023-02-03T08:45:55.750Z,7.45
2023-02-03T08:50:08.912Z,4.20
2023-02-03T08:54:20.788Z,6.43
2023-02-03T08:58:32.407Z,6.68
2023-02-03T09:02:44.015Z,6.13
2023-02-03T09:06:56.232Z,6.75
2023-02-03T09:11:11.858Z,6.40
2023-02-03T09:15:23.499Z,3.47
2023-02-03T09:19:36.654Z,7.20
2023-02-03T09:23:48.390Z,4.47
2023-02-03T09:28:03.229Z,7.50
2023-02-03T09:32:15.886Z,5.63
2023-02-03T09:36:27.642Z,4.32
2023-02-03T09:40:39.567Z,7.75
2023-02-03T09:45:08.607Z,5.65
2023-02-03T09:49:41.431Z,9.25
2023-02-03T09:54:22.080Z,6.35
2023-02-03T09:58:34.402Z,5.65
2023-02-03T10:03:24.975Z,2.53
2023-02-03T10:08:35.035Z,4.50
2023-02-03T10:13:05.093Z,5.22
2023-02-03T10:17:30.791Z,5.65
2023-02-03T10:21:51.535Z,3.28
2023-02-03T10:26:07.741Z,4.45
2023-02-03T10:30:22.648Z,5.53
2023-02-03T10:34:34.413Z,5.60
2023-02-03T10:38:45.969Z,3.75
2023-02-03T10:43:16.075Z,6.88
2023-02-03T10:47:39.706Z,3.80
2023-02-03T10:51:53.067Z,6.70
2023-02-03T10:56:10.721Z,5.30
2023-02-03T11:00:31.054Z,4.13
2023-02-03T11:04:42.813Z,4.57
2023-02-03T11:08:54.934Z,1.33
2023-02-03T11:13:26.802Z,8.00
2023-02-03T11:17:44.515Z,6.45
2023-02-03T11:21:56.945Z,8.05
2023-02-03T11:26:15.092Z,5.80
2023-02-03T11:30:31.706Z,4.03
2023-02-03T11:34:54.647Z,2.35
2023-02-03T11:39:35.527Z,7.95
2023-02-03T11:43:47.815Z,4.20
2023-02-03T11:48:21.556Z,3.45
2023-02-03T11:52:50.295Z,5.50
2023-02-03T11:57:16.570Z,6.25
2023-02-03T12:02:06.985Z,2.83
2023-02-03T12:06:24.453Z,3.55
2023-02-03T12:10:54.883Z,4.60
2023-02-03T12:15:22.077Z,1.70
2023-02-03T12:19:42.855Z,2.03
2023-02-03T12:24:15.646Z,3.92
2023-02-03T12:28:56.390Z,3.50
2023-02-03T12:33:23.326Z,3.15
2023-02-03T12:37:47.125Z,7.70
2023-02-03T12:42:06.654Z,8.75
2023-02-03T12:46:25.951Z,5.38
2023-02-03T12:50:50.354Z,5.43
2023-02-03T12:55:27.315Z,7.90
2023-02-03T12:59:40.776Z,6.43
2023-02-03T13:04:01.842Z,7.65
2023-02-03T13:08:22.273Z,7.07
2023-02-03T13:12:41.116Z,9.82
2023-02-03T13:16:58.701Z,8.88
2023-02-03T13:21:20.505Z,8.10
2023-02-03T13:25:42.250Z,6.15
2023-02-03T13:30:21.536Z,11.82
2023-02-03T13:34:50.135Z,6.78
2023-02-03T13:39:28.042Z,7.50
2023-02-03T13:43:46.620Z,10.32
2023-02-03T13:48:16.183Z,8.55
2023-02-03T13:52:38.682Z,10.23
2023-02-03T13:57:03.037Z,9.25
2023-02-03T14:01:35.763Z,9.15
2023-02-03T14:05:49.304Z,5.68
2023-02-03T14:10:13.327Z,7.20
2023-02-03T14:14:24.946Z,13.73
2023-02-03T14:18:46.644Z,8.23
2023-02-03T14:23:09.480Z,11.63
2023-02-03T14:27:30.085Z,12.85
2023-02-03T14:31:58.939Z,13.57
2023-02-03T14:36:31.185Z,9.60
2023-02-03T14:40:55.825Z,13.35
2023-02-03T14:45:20.920Z,11.20
2023-02-03T14:49:41.561Z,7.90
2023-02-03T14:54:08.292Z,12.80
2023-02-03T14:58:29.280Z,15.93
2023-02-03T15:03:06.631Z,11.60
2023-02-03T15:07:49.414Z,18.42
2023-02-03T15:12:03.820Z,14.95
2023-02-03T15:16:19.910Z,11.88
2023-02-03T15:20:43.449Z,14.40
2023-02-03T15:25:07.688Z,12.07
2023-02-03T15:29:28.036Z,14.98
2023-02-03T15:33:40.319Z,12.02
2023-02-03T15:37:58.487Z,10.60
2023-02-03T15:42:18.677Z,17.02
2023-02-03T15:46:42.130Z,9.82
2023-02-03T15:51:00.075Z,19.88
2023-02-03T15:55:34.950Z,14.50
2023-02-03T15:59:56.815Z,11.45
2023-02-03T16:04:34.664Z,9.13
2023-02-03T16:08:48.692Z,11.90
2023-02-03T16:13:25.692Z,7.22
2023-02-03T16:17:52.413Z,14.50
2023-02-03T16:22:36.303Z,13.40
2023-02-03T16:26:51.266Z,11.02
2023-02-03T16:31:39.158Z,12.95
2023-02-03T16:36:09.385Z,10.25
2023-02-03T16:40:41.647Z,8.35
2023-02-03T16:45:11.779Z,11.50
2023-02-03T16:49:42.017Z,10.50
2023-02-03T16:54:01.906Z,9.02
2023-02-03T16:58:13.694Z,15.55
2023-02-03T17:02:25.230Z,10.63
2023-02-03T17:06:38.534Z,13.95
2023-02-03T17:10:51.098Z,10.97
2023-02-03T17:15:02.682Z,13.73
2023-02-03T17:19:14.439Z,17.30
2023-02-03T17:23:26.034Z,9.10
2023-02-03T17:27:37.666Z,15.27
2023-02-03T17:31:49.333Z,19.10
2023-02-03T17:36:07.350Z,12.80
2023-02-03T17:53:47.365Z,22.65
2023-02-03T17:57:58.933Z,16.07
2023-02-03T18:02:10.723Z,11.53
2023-02-03T18:06:25.089Z,35.67
2023-02-03T18:10:36.795Z,13.73
2023-02-03T18:14:49.411Z,15.77
2023-02-03T18:19:03.554Z,16.10
2023-02-03T18:23:15.164Z,15.30
2023-02-03T18:27:26.761Z,26.77
2023-02-03T18:31:39.364Z,20.17
2023-02-03T18:35:52.235Z,13.23
2023-02-03T18:40:04.095Z,17.90
2023-02-03T18:44:15.671Z,13.33
2023-02-03T18:48:27.340Z,19.23
2023-02-03T18:52:38.997Z,16.03
2023-02-03T18:56:50.551Z,15.60
2023-02-03T19:01:02.329Z,17.90
2023-02-03T19:05:14.098Z,15.33
2023-02-03T19:09:47.422Z,13.73
2023-02-03T19:13:59.248Z,20.97
2023-02-03T19:18:11.647Z,12.53
2023-02-03T19:22:23.431Z,10.20
2023-02-03T19:26:35.259Z,17.07
2023-02-03T19:30:48.482Z,10.57
2023-02-03T19:35:01.044Z,16.67
2023-02-03T19:39:13.629Z,14.73
2023-02-03T19:43:25.263Z,16.80
2023-02-03T19:47:36.884Z,23.33
2023-02-03T19:51:48.502Z,17.80
2023-02-03T19:56:00.169Z,21.10
2023-02-03T20:00:13.000Z,19.27
2023-02-03T20:04:28.662Z,13.93
2023-02-03T20:08:40.241Z,17.80
2023-02-03T20:12:53.026Z,14.00
2023-02-03T20:17:07.458Z,11.73
2023-02-03T20:21:19.008Z,12.67
2023-02-03T20:25:30.655Z,20.37
2023-02-03T20:29:42.265Z,11.73
2023-02-03T20:33:53.915Z,17.87
2023-02-03T20:38:05.479Z,12.43
2023-02-03T20:42:17.918Z,14.83
2023-02-03T20:46:29.571Z,15.70
2023-02-03T20:50:46.969Z,13.27
2023-02-03T20:54:58.896Z,12.50
2023-02-03T20:59:13.140Z,14.37
2023-02-03T21:03:44.786Z,34.20
2023-02-03T21:07:56.550Z,16.57
2023-02-03T21:12:15.033Z,11.97
2023-02-03T21:16:35.205Z,21.40
2023-02-03T21:20:46.867Z,14.47
2023-02-03T21:25:01.301Z,13.50
2023-02-03T21:29:24.470Z,19.53
2023-02-03T21:33:44.026Z,11.83
2023-02-03T21:38:01.986Z,15.93
2023-02-03T21:42:42.075Z,11.00
2023-02-03T21:46:53.781Z,18.90
2023-02-03T21:51:16.923Z,18.37
2023-02-03T21:55:28.522Z,9.73
2023-02-03T21:59:47.083Z,15.33
2023-02-03T22:04:01.474Z,10.37
2023-02-03T22:08:23.655Z,7.17
2023-02-03T22:12:35.434Z,5.80
2023-02-03T22:16:47.542Z,13.57
2023-02-03T22:20:59.282Z,15.83
2023-02-03T22:25:10.916Z,14.13
2023-02-03T22:29:23.142Z,10.73
2023-02-03T22:33:35.549Z,10.93
2023-02-03T22:37:47.343Z,15.27
2023-02-03T22:41:59.128Z,19.67
2023-02-03T22:46:11.295Z,9.13
2023-02-03T22:50:34.770Z,10.63
2023-02-03T22:54:47.319Z,16.13
2023-02-03T22:58:58.995Z,13.93
2023-02-03T23:03:10.761Z,9.43
2023-02-03T23:07:22.426Z,11.67
2023-02-03T23:11:34.084Z,10.57
2023-02-03T23:15:46.020Z,12.03
2023-02-03T23:19:57.771Z,11.40
2023-02-03T23:24:09.472Z,10.20
2023-02-03T23:28:21.317Z,11.10
2023-02-03T23:32:33.966Z,18.67
2023-02-03T23:36:45.621Z,9.93
2023-02-03T23:40:57.196Z,12.17
2023-02-03T23:45:11.809Z,11.73
2023-02-03T23:49:23.466Z,10.77
2023-02-03T23:53:35.106Z,13.20
2023-02-03T23:57:46.758Z,9.90
